createdAt,value
2022-11-01T00:02:07.026Z,46.47
2022-11-01T00:04:33.708Z,45.20
2022-11-01T00:07:00.683Z,34.60
2022-11-01T00:09:27.433Z,37.90
2022-11-01T00:11:54.174Z,27.33
2022-11-01T00:14:21.306Z,25.73
2022-11-01T00:16:48.901Z,27.42
2022-11-01T00:19:15.791Z,29.95
2022-11-01T00:21:42.884Z,26.85
2022-11-01T00:24:09.631Z,36.08
2022-11-01T00:26:36.453Z,34.83
2022-11-01T00:29:03.908Z,28.65
2022-11-01T00:31:30.519Z,11.35
2022-11-01T00:33:57.218Z,23.33
2022-11-01T00:36:25.001Z,18.17
2022-11-01T00:38:52.494Z,25.27
2022-11-01T00:41:21.116Z,25.85
2022-11-01T00:43:48.392Z,23.30
2022-11-01T00:46:15.210Z,27.70
2022-11-01T00:48:42.048Z,11.85
2022-11-01T00:51:08.712Z,11.52
2022-11-01T00:53:35.419Z,15.43
2022-11-01T00:56:04.028Z,13.50
2022-11-01T00:58:30.656Z,14.18
2022-11-01T01:00:57.504Z,12.57
2022-11-01T01:03:24.322Z,17.48
2022-11-01T01:05:53.118Z,14.95
2022-11-01T01:08:20.859Z,13.05
2022-11-01T01:10:48.218Z,14.25
2022-11-01T01:13:15.076Z,16.42
2022-11-01T01:15:42.085Z,13.13
2022-11-01T01:18:09.390Z,17.75
2022-11-01T01:20:36.476Z,14.73
2022-11-01T01:23:03.365Z,16.33
2022-11-01T01:25:30.032Z,16.15
2022-11-01T01:27:57.091Z,17.95
2022-11-01T01:30:23.848Z,14.57
2022-11-01T01:32:50.640Z,16.45
2022-11-01T01:35:17.421Z,14.02
2022-11-01T01:37:44.076Z,15.63
2022-11-01T01:40:11.054Z,13.75
2022-11-01T01:42:40.517Z,17.50
2022-11-01T01:45:25.535Z,18.20
2022-11-01T01:47:54.283Z,15.75
2022-11-01T01:50:33.569Z,25.30
2022-11-01T01:53:20.389Z,29.50
2022-11-01T01:55:59.187Z,44.15
2022-11-01T01:58:30.642Z,85.05
2022-11-01T02:00:58.426Z,90.88
2022-11-01T02:03:32.165Z,58.20
2022-11-01T02:06:11.912Z,35.13
2022-11-01T02:08:53.348Z,31.83
2022-11-01T02:11:20.973Z,19.70
2022-11-01T02:13:48.204Z,11.23
2022-11-01T02:16:47.167Z,11.05
2022-11-01T02:19:51.061Z,8.18
2022-11-01T02:22:26.918Z,8.63
2022-11-01T02:25:31.135Z,8.13
2022-11-01T02:28:17.076Z,9.82
2022-11-01T02:31:28.933Z,8.30
2022-11-01T02:34:40.385Z,11.65
2022-11-01T02:37:14.504Z,15.35
2022-11-01T02:39:47.288Z,14.87
2022-11-01T02:42:24.763Z,13.38
2022-11-01T02:45:31.530Z,33.20
2022-11-01T02:47:59.648Z,17.02
2022-11-01T02:50:42.136Z,36.58
2022-11-01T02:53:09.317Z,49.17
2022-11-01T02:55:36.293Z,39.90
2022-11-01T02:58:03.325Z,42.30
2022-11-01T03:00:36.267Z,40.40
2022-11-01T03:03:12.147Z,39.90
2022-11-01T03:06:00.345Z,56.00
2022-11-01T03:08:30.016Z,34.92
2022-11-01T03:11:10.567Z,43.08
2022-11-01T03:13:46.370Z,30.35
2022-11-01T03:16:30.995Z,37.47
2022-11-01T03:19:15.744Z,30.27
2022-11-01T03:21:53.119Z,40.47
2022-11-01T03:24:29.000Z,36.38
2022-11-01T03:27:27.884Z,36.72
2022-11-01T03:30:03.143Z,66.43
2022-11-01T03:32:36.562Z,55.40
2022-11-01T03:35:04.992Z,44.42
2022-11-01T03:37:33.941Z,37.75
2022-11-01T03:40:04.612Z,28.13
2022-11-01T03:42:33.497Z,20.65
2022-11-01T03:45:06.540Z,23.05
2022-11-01T03:47:34.807Z,37.60
2022-11-01T03:50:23.071Z,50.15
2022-11-01T03:52:50.258Z,25.90
2022-11-01T03:55:18.450Z,47.97
2022-11-01T03:57:50.196Z,35.70
2022-11-01T04:00:27.655Z,32.55
2022-11-01T04:02:55.612Z,52.72
2022-11-01T04:05:24.012Z,33.40
2022-11-01T04:07:51.699Z,24.83
2022-11-01T04:10:19.762Z,40.15
2022-11-01T04:12:48.406Z,36.90
2022-11-01T04:15:35.358Z,35.28
2022-11-01T04:18:37.430Z,31.88
2022-11-01T04:21:08.408Z,27.48
2022-11-01T04:23:35.539Z,17.75
2022-11-01T04:26:03.435Z,12.93
2022-11-01T04:28:30.196Z,20.88
2022-11-01T04:30:57.086Z,27.23
2022-11-01T04:33:24.301Z,35.42
2022-11-01T04:35:50.903Z,24.95
2022-11-01T04:38:17.632Z,33.53
2022-11-01T04:40:45.007Z,39.70
2022-11-01T04:43:12.594Z,18.30
2022-11-01T04:45:39.836Z,17.73
2022-11-01T04:48:13.487Z,22.35
2022-11-01T04:50:41.896Z,30.88
2022-11-01T04:53:11.559Z,32.88
2022-11-01T04:55:38.326Z,29.40
2022-11-01T04:58:06.760Z,22.73
2022-11-01T05:00:34.392Z,35.15
2022-11-01T05:03:07.181Z,37.03
2022-11-01T05:05:35.394Z,35.72
2022-11-01T05:08:11.195Z,27.40
2022-11-01T05:10:43.470Z,29.38
2022-11-01T05:13:11.724Z,21.25
2022-11-01T05:15:40.068Z,21.48
2022-11-01T05:18:10.468Z,19.73
2022-11-01T05:20:37.276Z,19.08
2022-11-01T05:23:05.542Z,16.83
2022-11-01T05:25:37.034Z,23.48
2022-11-01T05:28:08.173Z,18.58
2022-11-01T05:30:35.931Z,15.98
2022-11-01T05:33:04.108Z,21.90
2022-11-01T05:35:31.187Z,18.60
2022-11-01T05:37:58.157Z,27.23
2022-11-01T05:40:25.451Z,25.75
2022-11-01T05:42:52.235Z,32.53
2022-11-01T05:45:19.168Z,26.13
2022-11-01T05:47:45.840Z,23.38
2022-11-01T05:50:15.488Z,24.88
2022-11-01T05:52:43.139Z,30.75
2022-11-01T05:55:10.377Z,33.38
2022-11-01T05:57:37.671Z,34.90
2022-11-01T06:00:06.434Z,35.22
2022-11-01T06:02:34.024Z,46.70
2022-11-01T06:05:03.076Z,32.50
2022-11-01T06:07:30.289Z,32.75
2022-11-01T06:09:56.924Z,33.40
2022-11-01T06:12:25.673Z,49.63
2022-11-01T06:14:52.873Z,38.17
2022-11-01T06:17:19.675Z,41.03
2022-11-01T06:19:46.426Z,39.85
2022-11-01T06:22:13.207Z,39.83
2022-11-01T06:24:39.953Z,42.80
2022-11-01T06:27:11.521Z,42.58
2022-11-01T06:29:39.281Z,45.80
2022-11-01T06:32:09.119Z,40.53
2022-11-01T06:34:37.645Z,36.10
2022-11-01T06:37:06.248Z,39.45
2022-11-01T06:39:32.859Z,36.40
2022-11-01T06:41:59.590Z,33.20
2022-11-01T06:44:26.225Z,28.17
2022-11-01T06:46:54.926Z,29.88
2022-11-01T06:49:22.183Z,29.50
2022-11-01T06:51:48.966Z,25.77
2022-11-01T06:54:15.687Z,23.30
2022-11-01T06:56:42.410Z,23.00
2022-11-01T06:59:09.035Z,26.42
2022-11-01T07:01:36.011Z,22.45
2022-11-01T07:04:02.807Z,21.50
2022-11-01T07:06:31.119Z,22.40
2022-11-01T07:09:01.586Z,25.48
2022-11-01T07:11:31.466Z,28.13
2022-11-01T07:13:59.530Z,144.18
2022-11-01T07:16:26.923Z,127.35
2022-11-01T07:18:53.754Z,61.97
2022-11-01T07:21:20.883Z,49.80
2022-11-01T07:23:47.654Z,50.08
2022-11-01T07:26:14.506Z,47.40
2022-11-01T07:28:41.330Z,39.85
2022-11-01T07:31:08.219Z,21.35
2022-11-01T07:33:35.234Z,15.85
2022-11-01T07:36:02.708Z,14.15
2022-11-01T07:38:29.370Z,16.35
2022-11-01T07:40:56.156Z,11.63
2022-11-01T07:43:22.935Z,10.57
2022-11-01T07:45:49.639Z,11.75
2022-11-01T07:48:18.896Z,8.32
2022-11-01T07:50:46.454Z,9.45
2022-11-01T07:53:16.284Z,13.68
2022-11-01T07:55:43.772Z,11.05
2022-11-01T07:58:11.568Z,11.35
2022-11-01T08:00:39.721Z,14.73
2022-11-01T08:03:12.677Z,9.30
2022-11-01T08:05:40.607Z,11.73
2022-11-01T08:08:08.095Z,10.50
2022-11-01T08:10:35.739Z,7.93
2022-11-01T08:13:13.855Z,7.88
2022-11-01T08:15:41.026Z,8.52
2022-11-01T08:18:09.125Z,6.43
2022-11-01T08:20:35.886Z,7.45
2022-11-01T08:23:03.490Z,6.20
2022-11-01T08:25:31.057Z,8.18
2022-11-01T08:28:02.954Z,6.82
2022-11-01T08:30:29.921Z,6.15
2022-11-01T08:33:01.590Z,7.55
2022-11-01T08:35:29.554Z,8.05
2022-11-01T08:37:58.552Z,7.75
2022-11-01T08:40:26.754Z,7.68
2022-11-01T08:42:53.465Z,8.73
2022-11-01T08:45:20.563Z,6.35
2022-11-01T08:47:47.209Z,7.75
2022-11-01T08:50:16.208Z,5.30
2022-11-01T08:52:42.890Z,6.00
2022-11-01T08:55:11.278Z,7.10
2022-11-01T08:57:38.615Z,6.82
2022-11-01T09:00:10.392Z,8.48
2022-11-01T09:02:37.147Z,4.13
2022-11-01T09:05:06.285Z,6.85
2022-11-01T09:07:36.324Z,7.95
2022-11-01T09:10:04.069Z,4.70
2022-11-01T09:12:31.242Z,5.68
2022-11-01T09:14:58.090Z,5.78
2022-11-01T09:17:24.851Z,6.88
2022-11-01T09:19:51.730Z,5.65
2022-11-01T09:22:18.560Z,8.05
2022-11-01T09:24:45.497Z,7.40
2022-11-01T09:27:12.400Z,5.32
2022-11-01T09:29:39.098Z,7.10
2022-11-01T09:32:06.839Z,5.78
2022-11-01T09:34:34.238Z,5.93
2022-11-01T09:37:01.410Z,6.75
2022-11-01T09:39:28.104Z,5.72
2022-11-01T09:42:04.735Z,5.70
2022-11-01T09:44:39.916Z,4.97
2022-11-01T09:47:12.581Z,8.20
2022-11-01T09:49:44.380Z,5.93
2022-11-01T09:52:21.304Z,6.72
2022-11-01T09:54:48.694Z,7.80
2022-11-01T09:57:24.808Z,9.68
2022-11-01T09:59:54.441Z,7.18
2022-11-01T10:02:50.246Z,4.95
2022-11-01T10:05:41.717Z,7.85
2022-11-01T10:08:14.225Z,7.30
2022-11-01T10:11:19.070Z,6.70
2022-11-01T10:14:07.916Z,5.47
2022-11-01T10:16:42.183Z,6.05
2022-11-01T10:19:17.722Z,8.38
2022-11-01T10:21:56.292Z,5.93
2022-11-01T10:24:32.346Z,7.35
2022-11-01T10:27:14.056Z,5.38
2022-11-01T10:29:50.148Z,6.28
2022-11-01T10:32:25.738Z,3.42
2022-11-01T10:34:55.915Z,5.50
2022-11-01T10:37:47.212Z,6.93
2022-11-01T10:40:33.581Z,7.05
2022-11-01T10:43:01.257Z,6.38
2022-11-01T10:45:28.092Z,6.22
2022-11-01T10:47:58.255Z,13.68
2022-11-01T10:50:29.262Z,7.72
2022-11-01T10:53:06.699Z,5.50
2022-11-01T10:55:45.970Z,9.00
2022-11-01T10:58:28.327Z,5.53
2022-11-01T11:00:54.965Z,7.72
2022-11-01T11:03:25.892Z,6.93
2022-11-01T11:05:55.321Z,3.05
2022-11-01T11:08:24.617Z,6.07
2022-11-01T11:10:52.064Z,5.70
2022-11-01T11:13:25.411Z,5.60
2022-11-01T11:15:54.545Z,6.65
2022-11-01T11:18:29.501Z,5.70
2022-11-01T11:23:29.786Z,4.82
2022-11-01T11:26:05.329Z,6.70
2022-11-01T11:28:34.640Z,6.25
2022-11-01T11:31:13.561Z,3.88
2022-11-01T11:34:07.548Z,4.65
2022-11-01T11:36:36.135Z,6.35
2022-11-01T11:39:03.634Z,6.88
2022-11-01T11:41:33.072Z,6.00
2022-11-01T11:44:00.291Z,6.50
2022-11-01T11:46:27.125Z,4.35
2022-11-01T11:49:01.209Z,5.55
2022-11-01T11:51:29.921Z,4.93
2022-11-01T11:54:24.834Z,6.30
2022-11-01T11:57:07.795Z,9.02
2022-11-01T11:59:35.578Z,7.15
2022-11-01T12:02:05.320Z,6.15
2022-11-01T12:04:42.046Z,4.78
2022-11-01T12:07:30.613Z,6.90
2022-11-01T12:10:02.398Z,7.15
2022-11-01T12:12:34.940Z,6.20
2022-11-01T12:15:05.309Z,4.40
2022-11-01T12:17:33.438Z,8.07
2022-11-01T12:20:12.746Z,4.80
2022-11-01T12:22:45.126Z,5.13
2022-11-01T12:25:16.872Z,6.88
2022-11-01T12:27:57.788Z,5.05
2022-11-01T12:30:28.246Z,11.25
2022-11-01T12:32:58.194Z,7.70
2022-11-01T12:35:41.444Z,7.20
2022-11-01T12:38:29.578Z,4.10
2022-11-01T12:41:02.401Z,7.47
2022-11-01T12:43:45.072Z,7.20
2022-11-01T12:46:49.430Z,6.88
2022-11-01T12:49:34.801Z,6.00
2022-11-01T12:52:10.840Z,4.35
2022-11-01T12:54:47.070Z,8.82
2022-11-01T12:57:18.673Z,7.63
2022-11-01T12:59:47.229Z,5.43
2022-11-01T13:02:40.109Z,4.95
2022-11-01T13:05:53.176Z,9.02
2022-11-01T13:08:28.968Z,6.65
2022-11-01T13:11:04.196Z,6.85
2022-11-01T13:13:42.552Z,5.60
2022-11-01T13:16:20.011Z,9.75
2022-11-01T13:18:49.562Z,5.97
2022-11-01T13:21:36.757Z,6.03
2022-11-01T13:24:25.100Z,5.85
2022-11-01T13:27:01.232Z,6.35
2022-11-01T13:29:41.462Z,6.20
2022-11-01T13:32:44.738Z,7.60
2022-11-01T13:35:33.237Z,7.47
2022-11-01T13:38:05.765Z,6.88
2022-11-01T13:40:35.586Z,6.95
2022-11-01T13:43:10.069Z,6.10
2022-11-01T13:45:39.776Z,8.25
2022-11-01T13:48:22.960Z,7.07
2022-11-01T13:51:10.715Z,6.90
2022-11-01T13:53:49.486Z,5.20
2022-11-01T13:56:25.141Z,6.88
2022-11-01T13:58:52.131Z,6.57
2022-11-01T14:01:37.342Z,8.02
2022-11-01T14:06:49.358Z,9.57
2022-11-01T14:09:27.990Z,6.95
2022-11-01T14:12:05.345Z,6.43
2022-11-01T14:14:32.094Z,5.70
2022-11-01T14:17:20.567Z,3.95
2022-11-01T14:19:57.045Z,8.77
2022-11-01T14:22:28.028Z,11.30
2022-11-01T14:25:00.038Z,11.38
2022-11-01T14:27:34.952Z,12.18
2022-11-01T14:32:31.999Z,9.38
2022-11-01T14:35:06.620Z,14.40
2022-11-01T14:37:40.351Z,12.98
2022-11-01T14:40:25.938Z,10.85
2022-11-01T14:42:56.192Z,14.85
2022-11-01T14:45:28.338Z,15.45
2022-11-01T14:48:00.534Z,13.38
2022-11-01T14:50:35.592Z,12.57
2022-11-01T14:53:17.101Z,14.05
2022-11-01T14:55:43.716Z,16.23
2022-11-01T14:58:22.554Z,17.88
2022-11-01T15:00:55.104Z,18.83
2022-11-01T15:03:22.991Z,17.50
2022-11-01T15:05:52.856Z,23.55
2022-11-01T15:08:26.419Z,20.42
2022-11-01T15:10:56.117Z,20.95
2022-11-01T15:13:27.779Z,22.13
2022-11-01T15:16:03.840Z,25.00
2022-11-01T15:18:31.966Z,24.05
2022-11-01T15:21:01.061Z,27.00
2022-11-01T15:23:35.547Z,19.98
2022-11-01T15:26:08.480Z,25.33
2022-11-01T15:28:42.469Z,19.70
2022-11-01T15:31:10.120Z,26.02
2022-11-01T15:33:38.861Z,62.17
2022-11-01T15:36:21.032Z,43.00
2022-11-01T15:38:57.691Z,41.95
2022-11-01T15:41:32.815Z,31.55
2022-11-01T15:44:01.858Z,230.82
2022-11-01T15:46:40.950Z,91.90
2022-11-01T15:49:12.105Z,72.07
2022-11-01T15:51:48.411Z,52.35
2022-11-01T15:54:25.693Z,56.25
2022-11-01T15:57:00.037Z,77.28
2022-11-01T15:59:37.080Z,59.63
2022-11-01T16:02:11.597Z,113.50
2022-11-01T16:04:44.399Z,203.05
2022-11-01T16:07:16.681Z,126.32
2022-11-01T16:09:51.089Z,78.07
2022-11-01T16:12:22.471Z,45.92
2022-11-01T16:15:20.229Z,43.85
2022-11-01T16:17:47.064Z,28.38
2022-11-01T16:20:30.890Z,23.83
2022-11-01T16:23:03.250Z,56.97
2022-11-01T16:25:32.973Z,115.03
2022-11-01T16:28:08.795Z,91.85
2022-11-01T16:30:49.089Z,81.97
2022-11-01T16:33:28.951Z,45.05
2022-11-01T16:36:01.635Z,102.25
2022-11-01T16:38:35.414Z,64.07
2022-11-01T16:41:15.784Z,61.83
2022-11-01T16:43:43.072Z,58.97
2022-11-01T16:46:09.864Z,75.45
2022-11-01T16:48:58.911Z,76.28
2022-11-01T16:51:28.625Z,45.13
2022-11-01T16:54:00.505Z,35.35
2022-11-01T16:56:45.142Z,28.00
2022-11-01T16:59:17.661Z,26.58
2022-11-01T17:01:46.168Z,40.55
2022-11-01T17:04:14.181Z,37.17
2022-11-01T17:06:40.972Z,35.22
2022-11-01T17:09:16.058Z,35.40
2022-11-01T17:11:50.471Z,49.33
2022-11-01T17:16:47.800Z,45.50
2022-11-01T17:19:44.256Z,137.05
2022-11-01T17:22:20.968Z,66.20
2022-11-01T17:24:47.948Z,73.38
2022-11-01T17:27:15.721Z,97.57
2022-11-01T17:29:43.209Z,136.93
2022-11-01T17:32:11.510Z,98.28
2022-11-01T17:34:39.226Z,83.93
2022-11-01T17:37:06.678Z,81.93
2022-11-01T17:39:33.579Z,77.45
2022-11-01T17:42:00.247Z,72.88
2022-11-01T17:44:27.071Z,82.63
2022-11-01T17:46:53.924Z,86.50
2022-11-01T17:49:23.719Z,131.68
2022-11-01T17:51:54.481Z,159.02
2022-11-01T17:54:22.913Z,160.55
2022-11-01T17:56:51.225Z,163.93
2022-11-01T17:59:18.168Z,216.98
2022-11-01T18:01:45.259Z,203.60
2022-11-01T18:04:12.137Z,231.18
2022-11-01T18:06:40.873Z,162.23
2022-11-01T18:09:23.636Z,133.68
2022-11-01T18:12:12.310Z,156.23
2022-11-01T18:14:57.528Z,149.32
2022-11-01T18:17:46.725Z,126.78
2022-11-01T18:20:26.978Z,114.45
2022-11-01T18:22:57.921Z,112.28
2022-11-01T18:25:40.444Z,147.20
2022-11-01T18:28:19.005Z,211.45
2022-11-01T18:30:57.637Z,145.13
2022-11-01T18:33:31.072Z,79.10
2022-11-01T18:36:54.045Z,192.50
2022-11-01T18:39:26.802Z,144.98
2022-11-01T18:41:53.967Z,72.05
2022-11-01T18:44:20.599Z,38.00
2022-11-01T18:46:54.112Z,46.45
2022-11-01T18:49:25.665Z,31.60
2022-11-01T18:51:53.774Z,25.10
2022-11-01T18:54:26.162Z,22.25
2022-11-01T18:56:57.844Z,20.15
2022-11-01T18:59:32.054Z,20.85
2022-11-01T19:02:10.992Z,25.65
2022-11-01T19:04:41.051Z,24.80
2022-11-01T19:07:16.617Z,25.40
2022-11-01T19:09:48.331Z,36.20
2022-11-01T19:12:26.921Z,28.90
2022-11-01T19:15:03.221Z,30.48
2022-11-01T19:20:02.484Z,40.72
2022-11-01T19:22:45.794Z,53.53
2022-11-01T19:25:22.879Z,47.10
2022-11-01T19:27:53.492Z,67.68
2022-11-01T19:30:22.689Z,63.28
2022-11-01T19:32:50.453Z,51.30
2022-11-01T19:35:21.913Z,36.33
2022-11-01T19:37:52.640Z,41.83
2022-11-01T19:40:31.945Z,33.05
2022-11-01T19:43:12.189Z,29.10
2022-11-01T19:45:45.812Z,41.13
2022-11-01T19:48:15.981Z,52.97
2022-11-01T19:50:46.962Z,57.35
2022-11-01T19:53:20.291Z,63.50
2022-11-01T19:56:00.933Z,56.60
2022-11-01T19:58:35.731Z,46.33
2022-11-01T20:01:18.740Z,40.45
2022-11-01T20:03:57.965Z,42.97
2022-11-01T20:06:35.463Z,51.30
2022-11-01T20:09:17.024Z,46.72
2022-11-01T20:11:43.730Z,82.30
2022-11-01T20:14:10.421Z,44.97
2022-11-01T20:16:37.046Z,36.28
2022-11-01T20:19:03.876Z,24.90
2022-11-01T20:21:30.680Z,24.92
2022-11-01T20:23:59.182Z,26.98
2022-11-01T20:26:26.409Z,22.40
2022-11-01T20:28:53.318Z,38.05
2022-11-01T20:31:20.046Z,83.75
2022-11-01T20:33:46.756Z,56.53
2022-11-01T20:36:13.636Z,51.03
2022-11-01T20:38:41.066Z,42.22
2022-11-01T20:41:07.922Z,48.35
2022-11-01T20:43:35.201Z,51.83
2022-11-01T20:46:01.909Z,46.15
2022-11-01T20:48:28.673Z,45.25
2022-11-01T20:50:55.429Z,38.45
2022-11-01T20:53:24.835Z,30.52
2022-11-01T20:55:55.385Z,39.35
2022-11-01T20:58:22.367Z,35.42
2022-11-01T21:00:51.634Z,32.85
2022-11-01T21:03:21.030Z,36.40
2022-11-01T21:05:49.475Z,30.75
2022-11-01T21:08:23.474Z,26.42
2022-11-01T21:11:03.229Z,30.05
2022-11-01T21:13:37.303Z,31.83
2022-11-01T21:16:08.319Z,35.37
2022-11-01T21:18:41.865Z,28.58
2022-11-01T21:21:32.862Z,34.40
2022-11-01T21:24:01.024Z,29.63
2022-11-01T21:26:34.396Z,35.45
2022-11-01T21:29:25.635Z,28.35
2022-11-01T21:31:52.322Z,38.22
2022-11-01T21:34:27.469Z,35.17
2022-11-01T21:39:28.531Z,29.65
2022-11-01T21:41:57.357Z,27.38
2022-11-01T21:44:29.164Z,25.70
2022-11-01T21:47:14.058Z,24.05
2022-11-01T21:49:40.879Z,20.35
2022-11-01T21:54:38.205Z,22.10
2022-11-01T21:57:07.393Z,20.33
2022-11-01T21:59:34.836Z,19.73
2022-11-01T22:02:02.753Z,19.77
2022-11-01T22:04:31.275Z,23.40
2022-11-01T22:06:59.416Z,24.45
2022-11-01T22:09:26.408Z,26.77
2022-11-01T22:11:53.871Z,44.65
2022-11-01T22:14:20.944Z,39.08
2022-11-01T22:16:47.692Z,36.85
2022-11-01T22:19:14.447Z,34.20
2022-11-01T22:21:41.251Z,35.78
2022-11-01T22:24:08.403Z,38.72
2022-11-01T22:26:35.209Z,44.70
2022-11-01T22:29:02.011Z,51.20
2022-11-01T22:31:28.747Z,38.72
2022-11-01T22:33:56.700Z,36.33
2022-11-01T22:36:31.753Z,31.38
2022-11-01T22:41:31.620Z,30.60
2022-11-01T22:44:06.534Z,22.42
2022-11-01T22:46:45.232Z,24.20
2022-11-01T22:49:45.525Z,24.13
2022-11-01T22:52:15.860Z,24.30
2022-11-01T22:54:52.116Z,20.25
2022-11-01T22:57:21.825Z,21.92
2022-11-01T22:59:52.764Z,21.10
2022-11-01T23:02:27.843Z,19.40
2022-11-01T23:05:06.723Z,19.83
2022-11-01T23:07:40.071Z,20.30
2022-11-01T23:10:22.916Z,19.02
2022-11-01T23:13:10.788Z,16.40
2022-11-01T23:15:37.503Z,18.27
2022-11-01T23:18:17.344Z,19.90
2022-11-01T23:21:08.021Z,17.45
2022-11-01T23:23:37.408Z,17.75
2022-11-01T23:26:04.141Z,16.85
2022-11-01T23:28:35.297Z,14.77
2022-11-01T23:31:04.750Z,16.65
2022-11-01T23:33:39.945Z,18.00
2022-11-01T23:36:18.020Z,17.02
2022-11-01T23:38:48.703Z,14.02
2022-11-01T23:41:23.944Z,16.08
2022-11-01T23:43:54.012Z,17.83
2022-11-01T23:46:20.661Z,13.48
2022-11-01T23:48:47.447Z,11.23
2022-11-01T23:51:19.400Z,16.83
2022-11-01T23:53:48.850Z,13.98
2022-11-01T23:56:19.611Z,15.68
2022-11-01T23:58:54.174Z,16.48
